createdAt,value
2018-01-19T00:01:17.719Z,0.90
2018-01-19T00:03:43.663Z,0.93
2018-01-19T00:06:09.651Z,1.20
2018-01-19T00:08:35.595Z,1.63
2018-01-19T00:11:02.336Z,1.43
2018-01-19T00:13:29.007Z,1.07
2018-01-19T00:15:55.688Z,1.43
2018-01-19T00:18:21.680Z,1.03
2018-01-19T00:20:47.637Z,1.43
2018-01-19T00:23:17.390Z,1.27
2018-01-19T00:25:43.333Z,1.17
2018-01-19T00:28:09.304Z,1.10
2018-01-19T00:30:35.300Z,1.07
2018-01-19T00:33:01.277Z,1.00
2018-01-19T00:35:27.256Z,1.27
2018-01-19T00:37:53.231Z,0.90
2018-01-19T00:40:19.208Z,2.27
2018-01-19T00:42:45.918Z,1.43
2018-01-19T00:45:11.895Z,0.97
2018-01-19T00:47:38.580Z,3.40
2018-01-19T00:50:04.511Z,1.23
2018-01-19T00:52:30.500Z,1.37
2018-01-19T00:54:56.472Z,0.70
2018-01-19T00:57:22.439Z,1.30
2018-01-19T00:59:48.421Z,0.70
2018-01-19T01:02:15.116Z,0.80
2018-01-19T01:04:41.088Z,1.00
2018-01-19T01:07:07.028Z,1.13
2018-01-19T01:09:33.009Z,1.33
2018-01-19T01:11:58.948Z,0.80
2018-01-19T01:14:24.907Z,1.37
2018-01-19T01:16:50.847Z,0.73
2018-01-19T01:19:16.823Z,2.10
2018-01-19T01:21:43.529Z,0.83
2018-01-19T01:24:09.548Z,1.33
2018-01-19T01:26:35.511Z,1.60
2018-01-19T01:29:01.468Z,0.80
2018-01-19T01:31:27.455Z,0.80
2018-01-19T01:33:53.383Z,0.97
2018-01-19T01:36:19.336Z,2.00
2018-01-19T01:38:45.347Z,1.00
2018-01-19T01:41:12.041Z,0.90
2018-01-19T01:43:37.984Z,0.93
2018-01-19T01:46:03.963Z,1.33
2018-01-19T01:48:30.644Z,1.27
2018-01-19T01:50:56.624Z,0.60
2018-01-19T01:53:22.607Z,1.37
2018-01-19T01:55:48.584Z,1.90
2018-01-19T01:58:14.584Z,1.47
2018-01-19T02:00:40.514Z,1.13
2018-01-19T02:03:06.510Z,0.77
2018-01-19T02:05:39.467Z,0.83
2018-01-19T02:08:05.491Z,1.37
2018-01-19T02:10:31.438Z,0.87
2018-01-19T02:12:57.419Z,0.90
2018-01-19T02:15:23.381Z,0.80
2018-01-19T02:17:50.132Z,1.03
2018-01-19T02:20:16.869Z,1.20
2018-01-19T02:22:42.808Z,0.90
2018-01-19T02:25:09.521Z,1.33
2018-01-19T02:27:35.504Z,1.40
2018-01-19T02:30:02.214Z,1.83
2018-01-19T02:32:28.205Z,0.90
2018-01-19T02:34:54.922Z,1.00
2018-01-19T02:37:20.869Z,0.80
2018-01-19T02:39:46.892Z,0.97
2018-01-19T02:42:13.597Z,0.70
2018-01-19T02:44:39.601Z,1.10
2018-01-19T02:47:06.302Z,1.17
2018-01-19T02:49:32.246Z,1.10
2018-01-19T02:51:58.235Z,1.10
2018-01-19T02:54:24.915Z,0.90
2018-01-19T02:56:50.889Z,2.10
2018-01-19T02:59:16.839Z,0.77
2018-01-19T03:01:42.808Z,0.63
2018-01-19T03:04:08.753Z,1.87
2018-01-19T03:06:34.756Z,0.80
2018-01-19T03:09:01.444Z,1.70
2018-01-19T03:11:27.390Z,0.90
2018-01-19T03:13:53.372Z,0.80
2018-01-19T03:16:19.331Z,1.13
2018-01-19T03:18:46.062Z,0.87
2018-01-19T03:21:12.032Z,1.03
2018-01-19T03:23:37.971Z,0.90
2018-01-19T03:26:03.960Z,0.70
2018-01-19T03:28:29.935Z,0.80
2018-01-19T03:30:55.881Z,1.40
2018-01-19T03:33:21.829Z,0.73
2018-01-19T03:35:47.816Z,0.70
2018-01-19T03:38:14.550Z,4.97
2018-01-19T03:40:41.976Z,3.17
2018-01-19T03:43:07.969Z,0.77
2018-01-19T03:45:33.937Z,0.70
2018-01-19T03:47:59.904Z,0.83
2018-01-19T03:50:25.872Z,0.87
2018-01-19T03:52:51.862Z,1.20
2018-01-19T03:55:17.832Z,1.00
2018-01-19T03:57:43.797Z,1.23
2018-01-19T04:00:10.511Z,1.00
2018-01-19T04:02:36.500Z,0.73
2018-01-19T04:05:02.433Z,1.00
2018-01-19T04:07:28.383Z,1.23
2018-01-19T04:09:54.356Z,0.90
2018-01-19T04:12:20.359Z,1.63
2018-01-19T04:14:46.318Z,0.80
2018-01-19T04:17:12.292Z,1.30
2018-01-19T04:19:38.975Z,1.27
2018-01-19T04:22:04.972Z,0.80
2018-01-19T04:24:30.948Z,0.90
2018-01-19T04:26:56.891Z,0.90
2018-01-19T04:29:22.840Z,1.10
2018-01-19T04:31:48.857Z,0.87
2018-01-19T04:34:14.832Z,1.07
2018-01-19T04:36:40.780Z,1.00
2018-01-19T04:39:06.761Z,0.53
2018-01-19T04:41:32.712Z,0.77
2018-01-19T04:43:58.661Z,0.90
2018-01-19T04:46:24.655Z,0.93
2018-01-19T04:48:50.648Z,0.80
2018-01-19T04:51:17.385Z,1.43
2018-01-19T04:53:43.392Z,0.90
2018-01-19T04:56:09.340Z,0.80
2018-01-19T04:58:35.326Z,1.37
2018-01-19T05:01:01.309Z,1.50
2018-01-19T05:03:27.248Z,0.97
2018-01-19T05:05:53.210Z,0.90
2018-01-19T05:08:19.248Z,1.53
2018-01-19T05:10:45.949Z,1.20
2018-01-19T05:13:11.931Z,0.80
2018-01-19T05:15:37.872Z,1.33
2018-01-19T05:18:03.833Z,0.83
2018-01-19T05:20:30.553Z,1.10
2018-01-19T05:22:56.492Z,0.63
2018-01-19T05:25:22.459Z,0.90
2018-01-19T05:27:48.420Z,1.33
2018-01-19T05:30:14.393Z,1.33
2018-01-19T05:32:40.380Z,0.70
2018-01-19T05:35:07.101Z,0.70
2018-01-19T05:37:33.052Z,0.87
2018-01-19T05:39:59.020Z,0.90
2018-01-19T05:42:24.960Z,0.87
2018-01-19T05:44:50.945Z,1.00
2018-01-19T05:47:16.973Z,0.73
2018-01-19T05:49:42.959Z,0.80
2018-01-19T05:52:08.949Z,0.70
2018-01-19T05:54:34.912Z,0.87
2018-01-19T05:57:01.628Z,1.40
2018-01-19T05:59:27.572Z,0.70
2018-01-19T06:01:53.556Z,0.80
2018-01-19T06:04:19.568Z,0.70
2018-01-19T06:06:45.541Z,0.70
2018-01-19T06:09:11.476Z,1.57
2018-01-19T06:11:37.456Z,0.90
2018-01-19T06:14:03.453Z,0.97
2018-01-19T06:16:29.430Z,1.00
2018-01-19T06:18:56.856Z,0.97
2018-01-19T06:21:22.795Z,0.70
2018-01-19T06:23:48.807Z,0.83
2018-01-19T06:26:14.820Z,1.57
2018-01-19T06:28:41.544Z,1.20
2018-01-19T06:31:07.547Z,0.90
2018-01-19T06:33:33.529Z,8.00
2018-01-19T06:35:59.508Z,3.50
2018-01-19T06:38:25.456Z,3.10
2018-01-19T06:40:51.440Z,2.93
2018-01-19T06:43:17.404Z,6.00
2018-01-19T06:45:44.099Z,3.60
2018-01-19T06:48:10.091Z,5.40
2018-01-19T06:50:42.852Z,2.43
2018-01-19T06:53:08.818Z,2.60
2018-01-19T06:55:35.533Z,3.60
2018-01-19T06:58:01.513Z,4.00
2018-01-19T07:00:27.499Z,2.03
2018-01-19T07:02:53.456Z,2.07
2018-01-19T07:05:19.405Z,2.90
2018-01-19T07:07:46.170Z,2.80
2018-01-19T07:10:12.862Z,1.60
2018-01-19T07:12:38.795Z,2.60
2018-01-19T07:15:04.817Z,1.70
2018-01-19T07:17:30.796Z,2.17
2018-01-19T07:19:56.748Z,1.70
2018-01-19T07:22:22.717Z,2.50
2018-01-19T07:24:48.771Z,4.40
2018-01-19T07:27:14.713Z,1.73
2018-01-19T07:29:40.737Z,5.77
2018-01-19T07:32:06.678Z,2.23
2018-01-19T07:34:32.663Z,4.07
2018-01-19T07:36:58.604Z,4.90
2018-01-19T07:39:25.296Z,2.10
2018-01-19T07:41:51.282Z,3.30
2018-01-19T07:44:17.243Z,2.07
2018-01-19T07:46:43.593Z,1.13
2018-01-19T07:49:09.583Z,3.83
2018-01-19T07:51:36.274Z,1.23
2018-01-19T07:54:03.011Z,1.40
2018-01-19T07:56:28.943Z,1.20
2018-01-19T07:58:54.920Z,1.60
2018-01-19T08:01:20.869Z,1.53
2018-01-19T08:03:46.859Z,1.00
2018-01-19T08:06:13.588Z,1.23
2018-01-19T08:08:39.532Z,1.17
2018-01-19T08:11:05.552Z,1.57
2018-01-19T08:13:31.501Z,1.10
2018-01-19T08:15:57.439Z,1.63
2018-01-19T08:18:24.152Z,1.67
2018-01-19T08:20:50.136Z,1.40
2018-01-19T08:23:16.889Z,1.47
2018-01-19T08:25:43.599Z,1.30
2018-01-19T08:28:09.561Z,1.67
2018-01-19T08:30:35.541Z,2.77
2018-01-19T08:33:01.553Z,2.27
2018-01-19T08:35:28.231Z,1.60
2018-01-19T08:37:54.204Z,1.10
2018-01-19T08:40:20.185Z,1.53
2018-01-19T08:42:46.155Z,1.20
2018-01-19T08:45:12.132Z,1.07
2018-01-19T08:47:38.078Z,1.40
2018-01-19T08:50:04.072Z,1.60
2018-01-19T08:52:30.022Z,1.13
2018-01-19T08:54:56.015Z,1.10
2018-01-19T08:57:21.985Z,1.27
2018-01-19T08:59:47.931Z,1.57
2018-01-19T09:02:13.872Z,2.60
2018-01-19T09:04:39.876Z,1.20
2018-01-19T09:07:05.890Z,1.37
2018-01-19T09:09:31.883Z,1.33
2018-01-19T09:11:57.833Z,1.37
2018-01-19T09:14:23.821Z,1.50
2018-01-19T09:16:49.778Z,1.30
2018-01-19T09:19:15.791Z,1.30
2018-01-19T09:21:41.759Z,1.27
2018-01-19T09:24:07.707Z,0.93
2018-01-19T09:26:33.702Z,1.10
2018-01-19T09:28:59.639Z,1.53
2018-01-19T09:31:25.603Z,1.60
2018-01-19T09:33:51.555Z,1.37
2018-01-19T09:36:18.312Z,2.60
2018-01-19T09:38:44.321Z,2.50
2018-01-19T09:41:10.281Z,3.13
2018-01-19T09:43:37.018Z,1.50
2018-01-19T09:46:03.014Z,6.10
2018-01-19T09:48:28.947Z,1.40
2018-01-19T09:50:54.920Z,1.17
2018-01-19T09:53:20.893Z,2.10
2018-01-19T09:55:47.582Z,1.60
2018-01-19T09:58:13.696Z,1.33
2018-01-19T10:00:39.679Z,2.43
2018-01-19T10:03:05.623Z,2.30
2018-01-19T10:05:31.619Z,2.97
2018-01-19T10:07:57.595Z,1.37
2018-01-19T10:10:23.528Z,1.93
2018-01-19T10:12:49.540Z,1.77
2018-01-19T10:15:15.507Z,2.03
2018-01-19T10:17:41.480Z,3.03
2018-01-19T10:20:07.447Z,2.17
2018-01-19T10:22:33.406Z,1.37
2018-01-19T10:24:59.344Z,1.30
2018-01-19T10:27:25.326Z,3.23
2018-01-19T10:29:51.281Z,1.47
2018-01-19T10:32:17.299Z,2.70
2018-01-19T10:34:43.276Z,1.27
2018-01-19T10:37:09.251Z,1.70
2018-01-19T10:39:35.940Z,2.30
2018-01-19T10:42:01.929Z,1.53
2018-01-19T10:44:27.869Z,1.17
2018-01-19T10:46:54.554Z,1.60
2018-01-19T10:49:20.595Z,1.33
2018-01-19T10:51:46.616Z,6.00
2018-01-19T10:54:12.597Z,2.40
2018-01-19T10:56:38.571Z,1.63
2018-01-19T10:59:05.310Z,1.80
2018-01-19T11:01:32.017Z,2.00
2018-01-19T11:03:57.973Z,2.97
2018-01-19T11:06:23.952Z,2.40
2018-01-19T11:08:50.673Z,1.70
2018-01-19T11:11:16.730Z,1.30
2018-01-19T11:13:42.696Z,1.07
2018-01-19T11:16:08.663Z,1.50
2018-01-19T11:18:41.644Z,1.40
2018-01-19T11:21:07.637Z,1.80
2018-01-19T11:23:33.641Z,1.80
2018-01-19T11:25:59.589Z,1.47
2018-01-19T11:28:25.563Z,1.43
2018-01-19T11:30:52.248Z,1.57
2018-01-19T11:33:18.263Z,1.93
2018-01-19T11:35:44.215Z,1.40
2018-01-19T11:38:10.189Z,1.70
2018-01-19T11:40:36.178Z,1.50
2018-01-19T11:43:02.165Z,3.23
2018-01-19T11:45:28.108Z,1.37
2018-01-19T11:47:54.084Z,1.57
2018-01-19T11:50:20.060Z,1.43
2018-01-19T11:52:46.060Z,1.37
2018-01-19T11:55:12.013Z,1.30
2018-01-19T11:57:37.989Z,1.60
2018-01-19T12:00:03.981Z,1.43
2018-01-19T12:02:29.960Z,2.90
2018-01-19T12:04:55.943Z,1.87
2018-01-19T12:07:21.936Z,1.47
2018-01-19T12:09:56.312Z,1.50
2018-01-19T12:12:22.312Z,1.27
2018-01-19T12:14:48.256Z,1.40
2018-01-19T12:17:14.977Z,1.30
2018-01-19T12:19:40.923Z,1.23
2018-01-19T12:22:06.911Z,2.23
2018-01-19T12:24:32.861Z,1.70
2018-01-19T12:26:58.872Z,1.47
2018-01-19T12:29:24.864Z,1.97
2018-01-19T12:31:52.289Z,1.60
2018-01-19T12:34:18.296Z,1.30
2018-01-19T12:36:44.988Z,1.57
2018-01-19T12:39:10.987Z,1.30
2018-01-19T12:41:38.620Z,2.10
2018-01-19T12:44:04.565Z,1.77
2018-01-19T12:46:30.536Z,1.73
2018-01-19T12:48:57.244Z,1.33
2018-01-19T12:51:23.236Z,2.10
2018-01-19T12:53:49.184Z,1.67
2018-01-19T12:56:15.124Z,1.47
2018-01-19T12:58:41.108Z,2.27
2018-01-19T13:01:07.077Z,1.43
2018-01-19T13:03:33.795Z,1.40
2018-01-19T13:05:59.736Z,1.40
2018-01-19T13:08:25.709Z,1.47
2018-01-19T13:10:51.684Z,1.17
2018-01-19T13:13:17.620Z,1.20
2018-01-19T13:15:43.638Z,2.67
2018-01-19T13:18:09.584Z,1.57
2018-01-19T13:20:35.588Z,1.37
2018-01-19T13:23:01.545Z,1.20
2018-01-19T13:25:27.516Z,1.70
2018-01-19T13:27:53.565Z,1.97
2018-01-19T13:30:19.505Z,1.30
2018-01-19T13:32:46.242Z,1.20
2018-01-19T13:35:13.687Z,2.43
2018-01-19T13:37:39.677Z,1.40
2018-01-19T13:40:06.373Z,1.23
2018-01-19T13:42:32.329Z,1.20
2018-01-19T13:44:58.320Z,1.33
2018-01-19T13:47:39.360Z,1.27
2018-01-19T13:50:06.104Z,1.37
2018-01-19T13:52:32.052Z,1.63
2018-01-19T13:55:05.100Z,2.73
2018-01-19T13:57:31.068Z,1.47
2018-01-19T13:59:57.101Z,1.60
2018-01-19T14:02:23.054Z,1.40
2018-01-19T14:04:48.995Z,2.70
2018-01-19T14:07:15.006Z,1.60
2018-01-19T14:09:40.949Z,1.50
2018-01-19T14:12:06.936Z,1.30
2018-01-19T14:14:33.701Z,1.40
2018-01-19T14:16:59.726Z,1.40
2018-01-19T14:19:26.436Z,1.60
2018-01-19T14:21:52.421Z,5.50
2018-01-19T14:24:18.396Z,2.10
2018-01-19T14:26:44.361Z,1.80
2018-01-19T14:29:10.354Z,1.30
2018-01-19T14:31:36.352Z,1.17
2018-01-19T14:34:03.083Z,1.80
2018-01-19T14:36:29.862Z,2.53
2018-01-19T14:38:56.607Z,1.80
2018-01-19T14:41:23.389Z,1.70
2018-01-19T14:43:49.414Z,2.00
2018-01-19T14:46:15.397Z,1.87
2018-01-19T14:48:41.392Z,1.40
2018-01-19T14:51:07.356Z,1.50
2018-01-19T14:53:33.325Z,1.57
2018-01-19T14:55:59.345Z,1.87
2018-01-19T14:58:25.395Z,2.20
2018-01-19T15:00:51.391Z,2.30
2018-01-19T15:03:17.322Z,4.37
2018-01-19T15:05:43.287Z,3.17
2018-01-19T15:08:09.227Z,2.50
2018-01-19T15:10:35.217Z,2.37
2018-01-19T15:13:01.167Z,2.50
2018-01-19T15:15:27.160Z,3.80
2018-01-19T15:17:53.188Z,2.60
2018-01-19T15:20:19.874Z,3.80
2018-01-19T15:22:45.856Z,4.50
2018-01-19T15:25:11.796Z,4.77
2018-01-19T15:27:37.774Z,4.70
2018-01-19T15:30:04.520Z,2.50
2018-01-19T15:32:31.244Z,2.40
2018-01-19T15:34:57.317Z,3.40
2018-01-19T15:37:24.060Z,2.27
2018-01-19T15:39:50.821Z,2.10
2018-01-19T15:42:17.523Z,2.60
2018-01-19T15:44:43.520Z,2.27
2018-01-19T15:49:43.085Z,2.50
2018-01-19T15:52:09.072Z,1.70
2018-01-19T15:54:35.134Z,2.10
2018-01-19T15:57:02.019Z,3.17
2018-01-19T15:59:28.248Z,2.10
2018-01-19T16:01:54.229Z,2.37
2018-01-19T16:04:20.206Z,4.33
2018-01-19T16:06:46.892Z,1.80
2018-01-19T16:09:12.870Z,3.00
2018-01-19T16:11:38.824Z,2.47
2018-01-19T16:14:05.554Z,2.50
2018-01-19T16:16:31.503Z,2.13
2018-01-19T16:18:57.443Z,2.17
2018-01-19T16:21:23.425Z,2.37
2018-01-19T16:23:49.383Z,2.23
2018-01-19T16:26:15.332Z,2.10
2018-01-19T16:28:41.300Z,1.93
2018-01-19T16:31:08.021Z,3.03
2018-01-19T16:33:34.709Z,2.43
2018-01-19T16:36:01.436Z,2.73
2018-01-19T16:38:27.439Z,9.20
2018-01-19T16:40:53.378Z,2.30
2018-01-19T16:43:19.329Z,5.20
2018-01-19T16:45:46.065Z,9.53
2018-01-19T16:48:12.044Z,4.50
2018-01-19T16:50:38.812Z,6.70
2018-01-19T16:53:05.507Z,7.17
2018-01-19T16:55:31.503Z,15.27
2018-01-19T16:57:57.480Z,4.50
2018-01-19T17:00:23.466Z,10.17
2018-01-19T17:02:50.231Z,15.03
2018-01-19T17:05:16.172Z,13.63
2018-01-19T17:07:42.156Z,8.60
2018-01-19T17:10:08.135Z,4.80
2018-01-19T17:12:34.946Z,9.37
2018-01-19T17:15:00.911Z,5.20
2018-01-19T17:17:27.672Z,6.00
2018-01-19T17:19:54.428Z,4.73
2018-01-19T17:22:21.174Z,4.80
2018-01-19T17:24:47.904Z,6.77
2018-01-19T17:27:13.855Z,4.37
2018-01-19T17:29:39.824Z,8.60
2018-01-19T17:32:05.808Z,11.23
2018-01-19T17:34:31.747Z,6.20
2018-01-19T17:36:57.759Z,4.33
2018-01-19T17:39:23.731Z,9.50
2018-01-19T17:41:50.465Z,6.80
2018-01-19T17:44:16.443Z,8.63
2018-01-19T17:46:43.135Z,6.47
2018-01-19T17:49:09.122Z,4.17
2018-01-19T17:51:35.816Z,7.03
2018-01-19T17:54:01.787Z,7.27
2018-01-19T17:56:27.736Z,3.00
2018-01-19T17:58:54.486Z,9.87
2018-01-19T18:01:20.488Z,10.67
2018-01-19T18:03:46.430Z,4.27
2018-01-19T18:06:12.421Z,9.77
2018-01-19T18:08:38.373Z,6.40
2018-01-19T18:11:11.472Z,5.40
2018-01-19T18:13:37.427Z,5.10
2018-01-19T18:16:03.437Z,3.43
2018-01-19T18:18:29.355Z,2.73
2018-01-19T18:20:56.098Z,8.67
2018-01-19T18:23:22.832Z,5.80
2018-01-19T18:25:48.818Z,6.03
2018-01-19T18:28:14.757Z,3.00
2018-01-19T18:30:40.722Z,5.47
2018-01-19T18:33:06.702Z,4.43
2018-01-19T18:35:33.420Z,8.53
2018-01-19T18:37:59.381Z,4.90
2018-01-19T18:40:25.408Z,2.73
2018-01-19T18:42:52.146Z,4.73
2018-01-19T18:45:18.150Z,5.23
2018-01-19T18:47:44.140Z,4.87
2018-01-19T18:50:10.093Z,4.47
2018-01-19T18:52:36.779Z,4.27
2018-01-19T18:55:02.855Z,6.83
2018-01-19T18:57:28.841Z,5.03
2018-01-19T18:59:54.912Z,9.00
2018-01-19T19:02:20.864Z,10.93
2018-01-19T19:04:46.824Z,8.63
2018-01-19T19:07:13.561Z,8.40
2018-01-19T19:09:39.544Z,7.40
2018-01-19T19:12:05.547Z,10.60
2018-01-19T19:14:32.325Z,11.90
2018-01-19T19:16:58.290Z,9.33
2018-01-19T19:19:24.317Z,6.43
2018-01-19T19:21:50.307Z,8.17
2018-01-19T19:24:31.987Z,7.07
2018-01-19T19:26:57.998Z,9.73
2018-01-19T19:29:24.065Z,5.80
2018-01-19T19:31:50.066Z,7.37
2018-01-19T19:34:16.003Z,3.93
2018-01-19T19:36:42.108Z,7.60
2018-01-19T19:39:08.871Z,4.50
2018-01-19T19:41:34.887Z,7.97
2018-01-19T19:44:01.671Z,3.30
2018-01-19T19:46:27.677Z,6.63
2018-01-19T19:48:54.424Z,7.43
2018-01-19T19:51:20.412Z,8.93
2018-01-19T19:53:46.356Z,5.53
2018-01-19T19:56:12.404Z,3.80
2018-01-19T19:58:38.400Z,5.43
2018-01-19T20:01:04.380Z,5.90
2018-01-19T20:03:30.407Z,6.53
2018-01-19T20:05:56.476Z,7.03
2018-01-19T20:08:22.507Z,4.73
2018-01-19T20:10:48.498Z,10.77
2018-01-19T20:13:14.548Z,11.70
2018-01-19T20:15:40.494Z,3.50
2018-01-19T20:18:06.478Z,6.93
2018-01-19T20:20:33.200Z,4.40
2018-01-19T20:22:59.161Z,6.17
2018-01-19T20:25:25.962Z,4.50
2018-01-19T20:27:51.955Z,6.80
2018-01-19T20:30:18.724Z,5.37
2018-01-19T20:32:45.504Z,5.87
2018-01-19T20:35:11.490Z,5.90
2018-01-19T20:37:37.516Z,6.40
2018-01-19T20:40:03.528Z,3.70
2018-01-19T20:42:29.542Z,3.50
2018-01-19T20:44:55.598Z,6.30
2018-01-19T20:47:21.601Z,4.63
2018-01-19T20:49:47.601Z,3.90
2018-01-19T20:52:13.540Z,6.70
2018-01-19T20:54:39.524Z,5.30
2018-01-19T20:57:05.560Z,3.83
2018-01-19T20:59:31.539Z,6.33
2018-01-19T21:01:57.489Z,4.20
2018-01-19T21:04:23.445Z,6.20
2018-01-19T21:06:50.228Z,3.90
2018-01-19T21:09:16.264Z,8.40
2018-01-19T21:11:49.344Z,2.73
2018-01-19T21:14:15.321Z,10.20
2018-01-19T21:16:41.344Z,4.13
2018-01-19T21:19:07.371Z,9.93
2018-01-19T21:21:33.316Z,1.97
2018-01-19T21:23:59.359Z,6.50
2018-01-19T21:26:25.374Z,2.90
2018-01-19T21:28:51.362Z,4.00
2018-01-19T21:31:17.345Z,4.80
2018-01-19T21:33:43.358Z,3.37
2018-01-19T21:36:10.126Z,2.40
2018-01-19T21:38:36.874Z,2.93
2018-01-19T21:41:03.655Z,3.50
2018-01-19T21:43:29.637Z,2.83
2018-01-19T21:45:55.690Z,3.20
2018-01-19T21:48:22.423Z,5.77
2018-01-19T21:53:37.074Z,4.60
2018-01-19T21:56:03.140Z,2.30
2018-01-19T21:58:29.166Z,2.47
2018-01-19T22:00:55.252Z,3.33
2018-01-19T22:03:21.255Z,3.93
2018-01-19T22:05:47.296Z,6.43
2018-01-19T22:08:13.321Z,6.63
2018-01-19T22:10:39.329Z,3.53
2018-01-19T22:13:05.374Z,3.10
2018-01-19T22:15:31.356Z,14.90
2018-01-19T22:17:57.346Z,3.83
2018-01-19T22:20:23.390Z,2.30
2018-01-19T22:22:49.507Z,2.47
2018-01-19T22:25:16.322Z,4.47
2018-01-19T22:27:42.324Z,4.10
2018-01-19T22:30:08.277Z,4.33
2018-01-19T22:32:34.331Z,4.20
2018-01-19T22:35:00.317Z,5.80
2018-01-19T22:37:26.418Z,5.10
2018-01-19T22:39:52.404Z,4.27
2018-01-19T22:42:18.411Z,3.23
2018-01-19T22:44:45.131Z,3.10
2018-01-19T22:47:11.865Z,2.40
2018-01-19T22:49:37.884Z,2.10
2018-01-19T22:52:03.856Z,2.27
2018-01-19T22:54:29.800Z,3.33
2018-01-19T22:56:56.230Z,2.67
2018-01-19T22:59:22.276Z,2.77
2018-01-19T23:01:48.250Z,4.90
2018-01-19T23:04:14.989Z,5.50
2018-01-19T23:06:41.772Z,3.10
2018-01-19T23:09:07.711Z,4.83
2018-01-19T23:11:33.744Z,6.23
2018-01-19T23:13:59.779Z,3.10
2018-01-19T23:16:25.829Z,2.63
2018-01-19T23:18:51.836Z,2.70
2018-01-19T23:21:18.558Z,1.60
2018-01-19T23:23:44.548Z,6.10
2018-01-19T23:26:10.576Z,2.43
2018-01-19T23:28:36.683Z,1.97
2018-01-19T23:31:03.407Z,4.50
2018-01-19T23:33:29.383Z,5.70
2018-01-19T23:35:55.387Z,2.30
2018-01-19T23:38:21.401Z,2.63
2018-01-19T23:40:47.426Z,1.70
2018-01-19T23:43:13.371Z,3.10
2018-01-19T23:45:39.399Z,2.10
2018-01-19T23:48:05.402Z,5.57
2018-01-19T23:50:32.125Z,3.33
2018-01-19T23:52:58.186Z,3.27
2018-01-19T23:55:24.144Z,2.00
2018-01-19T23:57:50.148Z,3.20
